Tuesday, July 26, 2016, 10:03 AM EDT

KSEG, Selinsgrove Penn Valley Airport

Location: Selinsgrove, PA, United States Lat: 40.817
Local Time: 10:03 AM EDT (14:03 GMT) Lon: -76.867
Time Zone: US/Eastern Elev: 449 ft

Show me the last for .
Show Decoded

2016-07-26 09:53 METAR KSEG 261353Z AUTO 00000KT 8SM BKN006 24/23 A2999 RMK AO2 CIG 005V010
                 SLP153 T02440228 =
2016-07-26 09:40 METAR KSEG 261340Z AUTO 00000KT 7SM OVC006 23/23 A3000 RMK AO2 CIG 004V010
                 T02330228 =
2016-07-26 09:04 METAR KSEG 261304Z AUTO 36003KT 4SM BR OVC002 23/23 A3000 RMK AO2 T02280228 =
2016-07-26 08:53 METAR KSEG 261253Z AUTO 00000KT 2 1/2SM BR OVC002 22/22 A3000 RMK AO2 SLP155
                 T02220222 =
2016-07-26 08:10 METAR KSEG 261210Z AUTO 16003KT 1 1/4SM BR OVC002 22/22 A2998 RMK AO2 T02170217
                 =
2016-07-26 07:53 METAR KSEG 261153Z AUTO 00000KT 1/4SM FG OVC002 21/21 A2998 RMK AO2 SLP149 70067
                 T02110211 10211 20200 51010 =
2016-07-26 07:18 METAR KSEG 261118Z AUTO 00000KT 3/4SM BR OVC002 21/21 A2997 RMK AO2 T02110211 =
2016-07-26 07:14 METAR KSEG 261114Z AUTO 00000KT 1 3/4SM BR OVC002 21/21 A2997 RMK AO2 T02110211
                 =
2016-07-26 06:58 METAR KSEG 261058Z AUTO 00000KT 3SM BR OVC002 21/21 A2997 RMK AO2 T02110211 =
2016-07-26 06:53 METAR KSEG 261053Z AUTO 00000KT 1 1/2SM BR OVC002 21/21 A2997 RMK AO2 SLP146
                 T02110211 =
2016-07-26 06:35 METAR KSEG 261035Z AUTO 00000KT 1 1/4SM BR OVC002 21/21 A2997 RMK AO2 T02060206
                 =
2016-07-26 06:26 METAR KSEG 261026Z AUTO 00000KT 1SM BR OVC003 21/21 A2997 RMK AO2 T02060206 =
2016-07-26 06:17 METAR KSEG 261017Z AUTO 00000KT 1 3/4SM BR OVC003 21/21 A2997 RMK AO2 T02060206
                 =
2016-07-26 05:53 METAR KSEG 260953Z AUTO 00000KT 4SM BR OVC002 21/21 A2996 RMK AO2 SLP143
                 T02060206 =
2016-07-26 05:51 METAR KSEG 260951Z AUTO 00000KT 3SM BR OVC002 21/21 A2996 RMK AO2 =
2016-07-26 05:38 METAR KSEG 260938Z AUTO 00000KT 1 1/4SM BR OVC002 21/21 A2996 RMK AO2 T02060206
                 =
2016-07-26 04:53 METAR KSEG 260853Z AUTO 00000KT 1/2SM FG VV002 21/21 A2995 RMK AO2 SLP138
                 T02060206 53002 =
2016-07-26 04:31 METAR KSEG 260831Z AUTO 00000KT 3/4SM BR OVC002 21/21 A2995 RMK AO2 T02060206 =
2016-07-26 04:18 METAR KSEG 260818Z AUTO 00000KT 1 3/4SM BR OVC002 21/21 A2994 RMK AO2 T02060206
                 =
2016-07-26 04:12 METAR KSEG 260812Z AUTO 00000KT 3SM BR OVC002 21/21 A2994 RMK AO2 T02060206 =
2016-07-26 04:05 METAR KSEG 260805Z AUTO 00000KT 1 1/4SM BR OVC002 21/21 A2995 RMK AO2 T02060206
                 =
2016-07-26 03:53 METAR KSEG 260753Z AUTO 00000KT 3/4SM BR VV002 21/21 A2995 RMK AO2 SLP137
                 T02060206 =
2016-07-26 02:53 METAR KSEG 260653Z AUTO 00000KT 1/4SM FG VV002 21/21 A2994 RMK AO2 SLP133
                 T02060206 =
2016-07-26 02:17 METAR KSEG 260617Z AUTO 00000KT 3/4SM BR OVC002 21/21 A2994 RMK AO2 T02060206 =
2016-07-26 02:10 METAR KSEG 260610Z AUTO 00000KT 1 3/4SM BR OVC002 21/21 A2994 RMK AO2 T02060206
                 =
2016-07-26 01:53 METAR KSEG 260553Z AUTO 00000KT 3SM BR BKN003 21/21 A2994 RMK AO2 SLP135
                 T02060206 10233 20200 50000 =
2016-07-26 01:47 METAR KSEG 260547Z AUTO 00000KT 3SM BR BKN003 20/20 A2994 RMK AO2 =
2016-07-26 01:26 METAR KSEG 260526Z AUTO 00000KT 2 1/2SM BR FEW003 20/20 A2995 RMK AO2 T02000200
                 =
2016-07-26 00:53 METAR KSEG 260453Z AUTO 00000KT 5SM BR FEW003 20/20 A2994 RMK AO2 SLP135
                 T02000200 403560200 =
2016-07-25 23:53 METAR KSEG 260353Z AUTO 00000KT 6SM BR CLR 21/21 A2995 RMK AO2 SLP137 T02060206
                 =
2016-07-25 22:53 METAR KSEG 260253Z AUTO 00000KT 7SM CLR 21/21 A2994 RMK AO2 SLP135 T02110211
                 53005 =
2016-07-25 21:53 METAR KSEG 260153Z AUTO 00000KT 10SM CLR 21/21 A2994 RMK AO2 SLP134 T02110211 =
2016-07-25 20:53 METAR KSEG 260053Z AUTO 00000KT 10SM CLR 22/22 A2992 RMK AO2 SLP129 T02220222 =
2016-07-25 19:53 METAR KSEG 252353Z AUTO 00000KT 10SM CLR 23/23 A2993 RMK AO2 SLP130 60067
                 T02330228 10356 20217 53005 =
2016-07-25 18:53 METAR KSEG 252253Z AUTO 07003KT 10SM FEW095 23/22 A2991 RMK AO2 LTG DSNT SE AND
                 S RAE39 SLP125 P0019 T02280217 =
2016-07-25 18:42 METAR KSEG 252242Z AUTO 10003KT 10SM SCT095 23/22 A2991 RMK AO2 LTG DSNT SE AND
                 S RAE39 P0019 T02280222 =
2016-07-25 18:21 METAR KSEG 252221Z AUTO 12005KT 4SM VCTS -RA BR FEW009 BKN070 OVC095 22/22 A2993
                 RMK AO2 LTG DSNT ALQDS P0019 T02220222 =
2016-07-25 18:14 METAR KSEG 252214Z AUTO 12006KT 1 1/4SM VCTS +RA BR BKN030 BKN075 OVC090 22/22
                 A2993 RMK AO2 LTG DSNT ALQDS P0019 T02220222 =
2016-07-25 18:09 METAR KSEG 252209Z AUTO 05003KT 3/4SM VCTS +RA BR SCT032 BKN075 BKN095 22/22
                 A2994 RMK AO2 LTG DSNT ALQDS P0015 T02220222 =
2016-07-25 18:03 METAR KSEG 252203Z AUTO 36005KT 1 1/2SM VCTS +RA BR SCT026 SCT050 BKN070 22/22
                 A2994 RMK AO2 LTG DSNT ALQDS P0009 T02220222 =
2016-07-25 18:01 METAR KSEG 252201Z AUTO 36006KT 4SM VCTS -RA BR SCT026 BKN070 23/22 A2994 RMK
                 AO2 LTG DSNT ALQDS PRESRR P0005 T02280222 =
2016-07-25 17:53 METAR KSEG 252153Z AUTO 05006G15KT 10SM VCTS -RA BKN024 BKN075 23/22 A2992 RMK
                 AO2 LTG DSNT ALQDS RAB13 TSB04E53 SLP127 P0048 T02280222 =
2016-07-25 17:45 METAR KSEG 252145Z AUTO 06009G15KT 3SM -TSRA BR BKN026 BKN041 BKN070 22/22 A2991
                 RMK AO2 LTG DSNT ALQDS RAB13 TSB04 P0048 T02220222 =
2016-07-25 17:41 METAR KSEG 252141Z AUTO 07009KT 1 1/4SM TSRA BR BKN026 BKN036 BKN055 22/22 A2992
                 RMK AO2 LTG DSNT ALQDS RAB13 TSB04 P0048 T02220222 =
2016-07-25 17:34 METAR KSEG 252134Z AUTO 09005KT 1/2SM +TSRA FG BKN026 BKN036 OVC050 22/22 A2995
                 RMK AO2 LTG DSNT ALQDS RAB13 TSB04 P0046 T02220222 =
2016-07-25 17:23 METAR KSEG 252123Z AUTO 35005KT 3/4SM +TSRA BR FEW026 SCT036 OVC050 23/22 A2998
                 RMK AO2 LTG DSNT ALQDS RAB13 TSB04 P0020 T02280222 =
2016-07-25 17:10 METAR KSEG 252110Z AUTO 02011G22KT 10SM TS FEW036 OVC047 25/21 A2991 RMK AO2 LTG
                 DSNT ALQDS TSB04 T02500206 =
2016-07-25 17:00 METAR KSEG 252100Z AUTO 02016G25KT 10SM VCTS FEW035 BKN045 OVC085 26/21 A2990
                 RMK AO2 LTG DSNT ALQDS T02560206 =
2016-07-25 16:53 METAR KSEG 252053Z AUTO 02015G37KT 10SM FEW035 SCT043 BKN070 26/20 A2991 RMK AO2
                 PK WND 01037/2044 LTG DSNT ALQDS PRESRR SLP124 60000 T02610200 53023 =
2016-07-25 16:00 METAR KSEG 252000Z AUTO VRB04KT 10SM CLR 29/24 A2983 RMK AO2 LTG DSNT N-SE
                 T02940244 =
2016-07-25 15:53 METAR KSEG 251953Z AUTO 15006KT 10SM VCTS CLR 29/24 A2984 RMK AO2 PK WND
                 31032/1903 LTG DSNT ALQDS RAB07E41 TSB1855E43 SLP099 P0000 T02890244 =
2016-07-25 15:49 METAR KSEG 251949Z AUTO 16006KT 10SM VCTS CLR 28/24 A2984 RMK AO2 PK WND
                 31032/1903 LTG DSNT ALQDS RAB07E41 TSB1855E43 P0000 =
2016-07-25 15:01 METAR KSEG 251901Z AUTO 30016G23KT 10SM TS FEW055 32/22 A2984 RMK AO2 LTG DSNT
                 ALQDS TSB1855 T03170222 =
2016-07-25 14:53 METAR KSEG 251853Z AUTO VRB05G15KT 10SM VCTS FEW055 34/23 A2984 RMK AO2 LTG DSNT
                 ALQDS SLP100 T03440228 =
2016-07-25 14:44 METAR KSEG 251844Z AUTO 22009G15KT 10SM VCTS FEW055 35/23 A2984 RMK AO2 LTG DSNT
                 ALQDS T03500228 =
2016-07-25 13:53 METAR KSEG 251753Z AUTO 22007KT 190V280 10SM SCT045 34/24 A2986 RMK AO2 LTG DSNT
                 S SLP106 T03390239 10339 20239 58033 =
2016-07-25 12:53 METAR KSEG 251653Z AUTO 18007KT 150V220 10SM FEW040 SCT046 BKN060 33/25 A2990
                 RMK AO2 LTG DSNT S SLP118 T03280250 =
2016-07-25 11:53 METAR KSEG 251553Z AUTO 00000KT 10SM FEW041 31/24 A2993 RMK AO2 SLP132 T03110244
                 =
2016-07-25 10:53 METAR KSEG 251453Z AUTO 21004KT 10SM CLR 29/24 A2996 RMK AO2 SLP139 T02940239
                 56003 =

Support USWX by starting your Amazon purchase here.